createdAt,value
2022-10-17T00:01:10.914Z,101913.84
2022-10-17T00:06:16.099Z,101904.00
2022-10-17T00:11:22.364Z,101911.69
2022-10-17T00:16:26.543Z,101913.75
2022-10-17T00:21:29.348Z,101922.44
2022-10-17T00:26:33.901Z,101910.59
2022-10-17T00:31:36.751Z,101909.22
2022-10-17T00:36:39.579Z,101898.38
2022-10-17T00:41:43.803Z,101906.16
2022-10-17T00:46:46.489Z,101887.84
2022-10-17T00:51:53.875Z,101890.28
2022-10-17T00:56:58.499Z,101890.75
2022-10-17T01:02:04.619Z,101913.16
2022-10-17T01:07:07.330Z,101910.16
2022-10-17T01:12:20.659Z,101899.28
2022-10-17T01:17:35.957Z,101909.31
2022-10-17T01:22:45.956Z,101903.91
2022-10-17T01:28:11.373Z,101910.31
2022-10-17T01:33:22.341Z,101909.00
2022-10-17T01:38:31.909Z,101899.53
2022-10-17T01:43:38.813Z,101894.25
2022-10-17T01:48:45.994Z,101887.00
2022-10-17T01:53:54.933Z,101889.72
2022-10-17T01:59:03.170Z,101881.84
2022-10-17T02:04:10.971Z,101881.03
2022-10-17T02:09:22.938Z,101891.00
2022-10-17T02:14:36.391Z,101892.78
2022-10-17T02:19:56.115Z,101901.50
2022-10-17T02:25:04.153Z,101900.00
2022-10-17T02:30:12.493Z,101896.78
2022-10-17T02:35:17.664Z,101902.34
2022-10-17T02:40:23.875Z,101907.00
2022-10-17T02:45:29.208Z,101912.91
2022-10-17T02:50:42.728Z,101896.78
2022-10-17T02:55:52.699Z,101897.09
2022-10-17T03:00:55.612Z,101907.31
2022-10-17T03:05:59.866Z,101890.00
2022-10-17T03:11:02.675Z,101891.84
2022-10-17T03:16:06.316Z,101891.84
2022-10-17T03:21:10.388Z,101894.38
2022-10-17T03:26:13.449Z,101883.94
2022-10-17T03:31:18.134Z,101879.88
2022-10-17T03:36:22.223Z,101886.88
2022-10-17T03:41:24.976Z,101892.25
2022-10-17T03:46:27.732Z,101892.72
2022-10-17T03:51:34.081Z,101889.88
2022-10-17T03:56:36.876Z,101880.56
2022-10-17T04:01:39.665Z,101864.22
2022-10-17T04:06:43.800Z,101848.59
2022-10-17T04:11:46.585Z,101849.41
2022-10-17T04:16:49.706Z,101843.41
2022-10-17T04:21:53.767Z,101834.19
2022-10-17T04:26:56.523Z,101829.19
2022-10-17T04:31:59.246Z,101829.56
2022-10-17T04:37:03.448Z,101833.25
2022-10-17T04:42:06.173Z,101834.94
2022-10-17T04:47:09.327Z,101831.41
2022-10-17T04:52:16.558Z,101837.56
2022-10-17T04:57:19.884Z,101832.44
2022-10-17T05:02:22.747Z,101828.28
2022-10-17T05:07:26.828Z,101817.81
2022-10-17T05:12:29.799Z,101828.66
2022-10-17T05:17:32.718Z,101823.56
2022-10-17T05:22:39.670Z,101815.13
2022-10-17T05:27:44.785Z,101818.16
2022-10-17T05:32:47.616Z,101810.78
2022-10-17T05:37:51.706Z,101800.84
2022-10-17T05:42:54.442Z,101797.22
2022-10-17T05:47:57.176Z,101795.50
2022-10-17T05:53:01.400Z,101801.78
2022-10-17T05:58:04.854Z,101791.03
2022-10-17T06:03:07.565Z,101798.66
2022-10-17T06:08:11.658Z,101797.38
2022-10-17T06:13:14.367Z,101803.13
2022-10-17T06:18:17.186Z,101807.94
2022-10-17T06:23:21.287Z,101813.47
2022-10-17T06:28:24.049Z,101812.09
2022-10-17T06:33:26.960Z,101799.22
2022-10-17T06:38:31.520Z,101804.66
2022-10-17T06:43:34.228Z,101798.41
2022-10-17T06:48:36.961Z,101803.78
2022-10-17T06:53:41.853Z,101794.19
2022-10-17T06:58:44.609Z,101798.81
2022-10-17T07:03:49.592Z,101802.81
2022-10-17T07:08:55.601Z,101785.56
2022-10-17T07:13:58.340Z,101788.59
2022-10-17T07:19:01.094Z,101789.38
2022-10-17T07:24:07.089Z,101791.59
2022-10-17T07:29:11.228Z,101784.38
2022-10-17T07:34:13.926Z,101782.31
2022-10-17T07:39:18.125Z,101776.09
2022-10-17T07:44:21.051Z,101782.94
2022-10-17T07:49:23.740Z,101797.06
2022-10-17T07:54:27.945Z,101801.47
2022-10-17T07:59:30.726Z,101791.66
2022-10-17T08:04:34.783Z,101784.63
2022-10-17T08:09:38.844Z,101779.97
2022-10-17T08:14:41.610Z,101777.25
2022-10-17T08:19:44.322Z,101769.25
2022-10-17T08:24:48.467Z,101778.97
2022-10-17T08:29:52.890Z,101761.22
2022-10-17T08:34:56.545Z,101761.28
2022-10-17T08:40:00.642Z,101763.94
2022-10-17T08:45:15.547Z,101767.38
2022-10-17T08:50:27.855Z,101764.69
2022-10-17T08:55:38.853Z,101768.06
2022-10-17T09:00:51.462Z,101743.09
2022-10-17T09:06:03.139Z,101714.69
2022-10-17T09:11:14.237Z,101724.22
2022-10-17T09:16:34.203Z,101752.50
2022-10-17T09:21:43.714Z,101740.91
2022-10-17T09:26:47.889Z,101732.94
2022-10-17T09:31:58.711Z,101730.03
2022-10-17T09:37:03.058Z,101731.38
2022-10-17T09:42:07.131Z,101736.34
2022-10-17T09:47:27.031Z,101722.41
2022-10-17T09:52:34.291Z,101729.84
2022-10-17T10:03:18.671Z,101733.44
2022-10-17T10:08:29.411Z,101728.63
2022-10-17T10:13:34.083Z,101715.84
2022-10-17T10:18:38.326Z,101712.00
2022-10-17T10:23:43.166Z,101714.38
2022-10-17T10:28:53.830Z,101724.63
2022-10-17T10:34:00.079Z,101711.91
2022-10-17T10:39:04.660Z,101704.34
2022-10-17T10:44:07.652Z,101700.19
2022-10-17T10:49:31.231Z,101690.34
2022-10-17T10:59:52.782Z,101693.00
2022-10-17T11:05:02.679Z,101701.28
2022-10-17T11:10:13.338Z,101703.19
2022-10-17T11:15:26.343Z,101687.97
2022-10-17T11:20:45.086Z,101687.94
2022-10-17T11:25:49.956Z,101687.06
2022-10-17T11:30:58.696Z,101691.63
2022-10-17T11:36:05.519Z,101683.75
2022-10-17T11:41:13.113Z,101690.13
2022-10-17T11:46:23.756Z,101677.72
2022-10-17T11:57:14.052Z,101669.13
2022-10-17T12:02:28.534Z,101665.81
2022-10-17T12:12:51.335Z,101668.84
2022-10-17T12:17:58.267Z,101671.56
2022-10-17T12:23:20.100Z,101678.69
2022-10-17T12:28:29.261Z,101680.34
2022-10-17T12:33:38.784Z,101687.44
2022-10-17T12:38:45.728Z,101675.78
2022-10-17T12:43:52.544Z,101657.78
2022-10-17T12:49:04.883Z,101665.81
2022-10-17T12:54:15.988Z,101662.38
2022-10-17T12:59:22.305Z,101645.56
2022-10-17T13:04:26.729Z,101643.97
2022-10-17T13:09:33.650Z,101661.75
2022-10-17T13:14:38.770Z,101653.63
2022-10-17T13:19:43.678Z,101652.75
2022-10-17T13:24:49.188Z,101654.47
2022-10-17T13:29:51.963Z,101647.22
2022-10-17T13:35:07.253Z,101643.59
2022-10-17T13:40:44.103Z,101635.50
2022-10-17T13:45:48.575Z,101622.03
2022-10-17T13:50:53.676Z,101631.00
2022-10-17T13:56:26.297Z,101634.53
2022-10-17T14:01:24.688Z,101653.28
2022-10-17T14:06:29.005Z,101670.91
2022-10-17T14:11:36.637Z,101674.31
2022-10-17T14:16:42.271Z,101668.59
2022-10-17T14:21:49.277Z,101673.69
2022-10-17T14:26:55.013Z,101691.31
2022-10-17T14:32:00.808Z,101708.09
2022-10-17T14:37:09.642Z,101701.72
2022-10-17T14:42:21.152Z,101697.84
2022-10-17T14:47:42.609Z,101730.75
2022-10-17T14:53:00.195Z,101742.16
2022-10-17T14:58:17.703Z,101747.47
2022-10-17T15:03:20.963Z,101746.47
2022-10-17T15:08:24.978Z,101754.41
2022-10-17T15:13:31.224Z,101763.22
2022-10-17T15:18:36.598Z,101747.06
2022-10-17T15:23:39.345Z,101733.66
2022-10-17T15:28:44.003Z,101706.09
2022-10-17T15:33:48.004Z,101723.72
2022-10-17T15:38:52.333Z,101754.59
2022-10-17T15:43:56.351Z,101721.28
2022-10-17T15:49:04.749Z,101697.09
2022-10-17T15:54:08.277Z,101705.94
2022-10-17T15:59:16.701Z,101724.53
2022-10-17T16:04:19.835Z,101736.78
2022-10-17T16:09:22.552Z,101719.72
2022-10-17T16:14:26.883Z,101725.75
2022-10-17T16:19:30.136Z,101746.84
2022-10-17T16:24:33.533Z,101771.59
2022-10-17T16:29:37.675Z,101776.72
2022-10-17T16:34:40.384Z,101777.56
2022-10-17T16:39:43.378Z,101784.72
2022-10-17T16:44:48.092Z,101777.56
2022-10-17T16:49:50.909Z,101787.22
2022-10-17T16:54:53.732Z,101788.94
2022-10-17T16:59:58.015Z,101787.94
2022-10-17T17:05:00.763Z,101792.34
2022-10-17T17:10:03.615Z,101809.97
2022-10-17T17:15:08.704Z,101824.06
2022-10-17T17:20:11.555Z,101828.28
2022-10-17T17:25:14.518Z,101836.06
2022-10-17T17:30:18.775Z,101848.25
2022-10-17T17:35:21.757Z,101863.13
2022-10-17T17:40:24.501Z,101863.78
2022-10-17T17:45:29.048Z,101870.41
2022-10-17T17:50:32.828Z,101883.31
2022-10-17T17:55:36.089Z,101896.34
2022-10-17T18:00:41.511Z,101897.94
2022-10-17T18:05:44.229Z,101899.50
2022-10-17T18:10:49.495Z,101902.91
2022-10-17T18:15:58.188Z,101904.38
2022-10-17T18:21:02.802Z,101912.19
2022-10-17T18:26:05.880Z,101920.94
2022-10-17T18:31:13.200Z,101925.22
2022-10-17T18:36:16.655Z,101930.34
2022-10-17T18:41:21.316Z,101928.50
2022-10-17T18:46:27.193Z,101939.84
2022-10-17T18:51:30.061Z,101942.38
2022-10-17T18:56:32.953Z,101943.13
2022-10-17T19:01:37.112Z,101945.59
2022-10-17T19:06:40.758Z,101948.13
2022-10-17T19:11:43.643Z,101952.34
2022-10-17T19:16:50.889Z,101954.78
2022-10-17T19:21:54.146Z,101961.72
2022-10-17T19:26:59.358Z,101968.78
2022-10-17T19:32:03.604Z,101968.66
2022-10-17T19:37:06.459Z,101979.13
2022-10-17T19:42:09.197Z,101985.34
2022-10-17T19:47:13.299Z,101995.13
2022-10-17T19:52:16.016Z,101974.66
2022-10-17T19:57:18.764Z,101973.75
2022-10-17T20:02:22.860Z,101975.56
2022-10-17T20:07:25.665Z,101985.25
2022-10-17T20:12:28.693Z,101993.00
2022-10-17T20:22:40.925Z,102001.56
2022-10-17T20:27:43.716Z,102004.94
2022-10-17T20:32:47.827Z,101999.50
2022-10-17T20:37:50.936Z,102001.97
2022-10-17T20:42:53.679Z,102012.56
2022-10-17T20:47:58.225Z,102025.94
2022-10-17T20:53:31.276Z,102022.28
2022-10-17T20:58:24.104Z,102026.75
2022-10-17T21:03:29.048Z,102026.72
2022-10-17T21:08:31.965Z,102032.69
2022-10-17T21:13:34.659Z,102040.41
2022-10-17T21:18:39.249Z,102046.44
2022-10-17T21:23:43.334Z,102044.44
2022-10-17T21:28:47.629Z,102055.84
2022-10-17T21:33:54.164Z,102052.38
2022-10-17T21:38:58.051Z,102047.81
2022-10-17T21:44:02.674Z,102046.00
2022-10-17T21:49:06.818Z,102057.63
2022-10-17T21:54:10.163Z,102068.25
2022-10-17T21:59:13.201Z,102061.06
2022-10-17T22:04:18.885Z,102066.44
2022-10-17T22:09:25.046Z,102074.34
2022-10-17T22:14:28.728Z,102080.38
2022-10-17T22:19:32.857Z,102076.75
2022-10-17T22:24:35.772Z,102088.16
2022-10-17T22:29:39.609Z,102101.41
2022-10-17T22:34:43.734Z,102097.84
2022-10-17T22:39:46.431Z,102093.28
2022-10-17T22:44:49.745Z,102087.06
2022-10-17T22:49:53.861Z,102084.34
2022-10-17T22:54:56.585Z,102092.22
2022-10-17T22:59:59.270Z,102090.28
2022-10-17T23:05:03.829Z,102100.63
2022-10-17T23:10:07.974Z,102111.69
2022-10-17T23:15:11.392Z,102105.19
2022-10-17T23:20:15.516Z,102098.66
2022-10-17T23:25:18.461Z,102093.06
2022-10-17T23:30:21.454Z,102094.53
2022-10-17T23:35:25.572Z,102113.97
2022-10-17T23:40:28.418Z,102112.91
2022-10-17T23:45:36.019Z,102122.34
2022-10-17T23:50:41.135Z,102114.97
2022-10-17T23:55:43.851Z,102125.53
